Hiwassee Observed Data For Previous 48 Hours

Caption
Day and Hour Reservoir Elevation (behind dam)* Tailwater Elevation (below dam)* Average Hourly Discharge*
11/16/2017 2 AM EST 1,493.86 1,277.10 0
11/16/2017 3 AM EST 1,493.86 1,277.04 0
11/16/2017 4 AM EST 1,493.86 1,277.70 3,689
11/16/2017 5 AM EST 1,493.85 1,278.00 8,033
11/16/2017 6 AM EST 1,493.85 1,278.20 8,027
11/16/2017 7 AM EST 1,493.85 1,278.25 8,024
11/16/2017 8 AM EST 1,493.84 1,278.28 8,018
11/16/2017 9 AM EST 1,494.04 1,277.90 3,675
11/16/2017 10 AM EST 1,494.01 1,277.85 3,693
11/16/2017 11 AM EST 1,494.01 1,277.70 3,673
11/16/2017 12 PM EST 1,493.99 1,277.60 3,688
11/16/2017 1 PM EST 1,493.97 1,277.58 3,693
11/16/2017 2 PM EST 1,493.94 1,277.38 88
11/16/2017 3 PM EST 1,493.92 1,276.89 0
11/16/2017 4 PM EST 1,493.90 1,276.63 0
11/16/2017 5 PM EST 1,493.90 1,276.47 64
11/16/2017 6 PM EST 1,493.90 1,276.75 3,738
11/16/2017 7 PM EST 1,493.88 1,277.88 7,872
11/16/2017 8 PM EST 1,493.83 1,277.94 8,047
11/16/2017 9 PM EST 1,493.75 1,278.16 8,049
11/16/2017 10 PM EST 1,493.67 1,277.15 3,874
11/16/2017 11 PM EST 1,493.57 1,277.73 3,689
11/17/2017 12 AM EST 1,493.52 1,277.03 87
11/17/2017 1 AM EST 1,493.48 1,277.44 0
11/17/2017 2 AM EST 1,493.45 1,277.24 0
11/17/2017 3 AM EST 1,493.45 1,277.13 0
11/17/2017 4 AM EST 1,493.45 1,277.02 0
11/17/2017 5 AM EST 1,493.48 1,276.97 0
11/17/2017 6 AM EST 1,493.51 1,277.00 733
11/17/2017 7 AM EST 1,493.56 1,277.06 3,735
11/17/2017 8 AM EST 1,493.56 1,278.17 7,914
11/17/2017 9 AM EST 1,493.56 1,278.30 8,048
11/17/2017 10 AM EST 1,493.53 1,278.60 8,042
11/17/2017 11 AM EST 1,493.49 1,277.59 3,862
11/17/2017 12 PM EST 1,493.46 1,278.15 3,680
11/17/2017 1 PM EST 1,493.44 1,277.62 93
11/17/2017 2 PM EST 1,493.41 1,277.82 0
11/17/2017 3 PM EST 1,493.41 1,277.54 0
11/17/2017 4 PM EST 1,493.41 1,277.38 0
11/17/2017 5 PM EST 1,493.44 1,277.20 0
11/17/2017 6 PM EST 1,493.46 1,276.91 53
11/17/2017 7 PM EST 1,493.46 1,277.44 3,557
11/17/2017 8 PM EST 1,493.46 1,277.05 3,698
11/17/2017 9 PM EST 1,493.45 1,277.10 3,692
11/17/2017 10 PM EST 1,493.45 1,276.36 88
11/17/2017 11 PM EST 1,493.45 1,277.00 0
11/18/2017 12 AM EST 1,493.45 1,276.65 0
11/18/2017 1 AM EST 1,493.45 1,276.38 0
11/18/2017 2 AM EST 1,493.45 1,276.07 0
11/18/2017 3 AM EST 1,493.48 1,276.28 0
11/18/2017 4 AM EST 1,493.48 1,276.14 0
11/18/2017 5 AM EST 1,493.50 1,276.01 65
11/18/2017 6 AM EST 1,493.53 1,276.46 3,692
11/18/2017 7 AM EST 1,493.53 1,276.34 3,705
11/18/2017 8 AM EST 1,493.53 1,276.48 3,705
11/18/2017 9 AM EST 1,493.51 1,276.65 3,696
11/18/2017 10 AM EST 1,493.49 1,276.86 3,696
11/18/2017 11 AM EST 1,493.44 1,276.98 3,697

Elevations are in feet above sea level. Discharges are in cubic feet per second and are reported at the end of the hour.